Terminal Aerodrome Forecast
Issued by NWS

Home | Current Version | Previous Version | Text Only | Print | Product List | Glossary On
Versions: 1 2 3 4 5 6 7 8 9 10 11 12
000
FTAK31 PAJN 030500
TAFAPG
TAF
PAPG 030520Z 0306/0406 23005KT P6SM VCSH FEW025 SCT040 BKN060
     FM031000 VRB03KT P6SM VCFG FEW005 SCT025 BKN060
     FM031800 05006KT P6SM SCT040 BKN070
      AMD LTD TO CLD VIS AND WIND 0306/0315=

USA.gov is the U.S. government's official web portal to all federal, state and local government web resources and services.